createdAt,value
2023-01-09T00:00:50.586Z,7.80
2023-01-09T00:02:02.048Z,7.79
2023-01-09T00:03:05.064Z,7.78
2023-01-09T00:04:08.502Z,7.78
2023-01-09T00:05:13.109Z,7.78
2023-01-09T00:06:16.155Z,7.78
2023-01-09T00:07:19.261Z,7.79
2023-01-09T00:08:22.230Z,7.81
2023-01-09T00:09:25.219Z,7.83
2023-01-09T00:10:28.286Z,7.85
2023-01-09T00:11:31.228Z,7.85
2023-01-09T00:12:35.278Z,7.84
2023-01-09T00:13:38.490Z,7.83
2023-01-09T00:14:41.572Z,7.83
2023-01-09T00:15:44.617Z,7.83
2023-01-09T00:16:47.842Z,7.84
2023-01-09T00:17:51.088Z,7.83
2023-01-09T00:18:54.154Z,7.83
2023-01-09T00:19:58.511Z,7.83
2023-01-09T00:21:03.638Z,7.84
2023-01-09T00:22:09.500Z,7.84
2023-01-09T00:23:12.607Z,7.85
2023-01-09T00:24:15.636Z,7.85
2023-01-09T00:25:18.814Z,7.85
2023-01-09T00:26:22.298Z,7.84
2023-01-09T00:27:25.305Z,7.86
2023-01-09T00:28:28.440Z,7.86
2023-01-09T00:29:31.541Z,7.87
2023-01-09T00:30:34.545Z,7.88
2023-01-09T00:31:37.577Z,7.89
2023-01-09T00:32:40.850Z,7.92
2023-01-09T00:33:50.334Z,7.93
2023-01-09T00:34:54.651Z,7.94
2023-01-09T00:35:57.574Z,7.95
2023-01-09T00:37:00.633Z,7.96
2023-01-09T00:38:03.641Z,7.98
2023-01-09T00:39:06.876Z,7.98
2023-01-09T00:40:11.939Z,8.00
2023-01-09T00:41:23.118Z,8.02
2023-01-09T00:42:30.313Z,8.03
2023-01-09T00:43:38.889Z,8.03
2023-01-09T00:44:49.734Z,8.03
2023-01-09T00:45:52.916Z,8.03
2023-01-09T00:47:00.016Z,8.04
2023-01-09T00:48:10.122Z,8.06
2023-01-09T00:49:15.274Z,8.08
2023-01-09T00:50:24.768Z,8.09
2023-01-09T00:51:28.119Z,8.11
2023-01-09T00:52:34.186Z,8.12
2023-01-09T00:53:40.568Z,8.13
2023-01-09T00:54:44.294Z,8.14
2023-01-09T00:55:47.564Z,8.15
2023-01-09T00:56:50.966Z,8.16
2023-01-09T00:57:53.963Z,8.16
2023-01-09T00:58:57.149Z,8.17
2023-01-09T01:00:01.198Z,8.18
2023-01-09T01:01:04.446Z,8.18
2023-01-09T01:02:08.305Z,8.19
2023-01-09T01:03:11.976Z,8.18
2023-01-09T01:04:33.522Z,8.17
2023-01-09T01:05:55.139Z,8.14
2023-01-09T01:07:16.977Z,8.12
2023-01-09T01:08:20.720Z,8.11
2023-01-09T01:09:23.666Z,8.12
2023-01-09T01:10:27.158Z,8.12
2023-01-09T01:11:32.395Z,8.14
2023-01-09T01:12:35.555Z,8.14
2023-01-09T01:13:40.425Z,8.13
2023-01-09T01:14:43.552Z,8.11
2023-01-09T01:15:47.116Z,8.08
2023-01-09T01:16:50.278Z,8.07
2023-01-09T01:17:53.529Z,8.05
2023-01-09T01:18:56.852Z,8.05
2023-01-09T01:19:59.873Z,8.04
2023-01-09T01:21:09.768Z,8.04
2023-01-09T01:22:12.873Z,8.05
2023-01-09T01:23:16.241Z,8.04
2023-01-09T01:24:19.936Z,8.05
2023-01-09T01:25:23.306Z,8.06
2023-01-09T01:26:26.349Z,8.06
2023-01-09T01:27:29.568Z,8.04
2023-01-09T01:28:33.451Z,8.03
2023-01-09T01:29:36.528Z,8.03
2023-01-09T01:30:41.412Z,8.02
2023-01-09T01:31:44.479Z,8.01
2023-01-09T01:32:47.527Z,8.00
2023-01-09T01:33:50.839Z,7.99
2023-01-09T01:34:53.931Z,7.98
2023-01-09T01:36:17.961Z,7.96
2023-01-09T01:37:21.972Z,7.93
2023-01-09T01:38:24.930Z,7.92
2023-01-09T01:39:28.209Z,7.92
2023-01-09T01:40:31.196Z,7.91
2023-01-09T01:41:34.199Z,7.89
2023-01-09T01:42:37.366Z,7.88
2023-01-09T01:43:52.578Z,7.87
2023-01-09T01:45:12.908Z,7.86
2023-01-09T01:46:18.419Z,7.85
2023-01-09T01:47:24.840Z,7.84
2023-01-09T01:48:30.230Z,7.84
2023-01-09T01:49:33.208Z,7.84
2023-01-09T01:50:45.205Z,7.84
2023-01-09T01:51:52.271Z,7.84
2023-01-09T01:53:26.798Z,7.84
2023-01-09T01:54:32.720Z,7.83
2023-01-09T01:55:39.930Z,7.81
2023-01-09T01:56:46.769Z,7.79
2023-01-09T01:57:55.470Z,7.78
2023-01-09T01:59:08.110Z,7.76
2023-01-09T02:00:12.272Z,7.74
2023-01-09T02:01:15.820Z,7.74
2023-01-09T02:02:22.716Z,7.75
2023-01-09T02:03:28.499Z,7.75
2023-01-09T02:04:34.360Z,7.76
2023-01-09T02:05:39.162Z,7.75
2023-01-09T02:06:43.728Z,7.74
2023-01-09T02:07:46.867Z,7.73
2023-01-09T02:08:50.554Z,7.73
2023-01-09T02:09:54.980Z,7.73
2023-01-09T02:10:57.982Z,7.72
2023-01-09T02:12:01.456Z,7.73
2023-01-09T02:13:05.241Z,7.73
2023-01-09T02:14:08.204Z,7.73
2023-01-09T02:15:14.347Z,7.72
2023-01-09T02:17:03.715Z,7.72
2023-01-09T02:18:24.508Z,7.71
2023-01-09T02:20:15.517Z,7.71
2023-01-09T02:21:39.945Z,7.72
2023-01-09T02:23:01.674Z,7.72
2023-01-09T02:24:26.359Z,7.72
2023-01-09T02:25:50.979Z,7.71
2023-01-09T02:27:19.054Z,7.70
2023-01-09T02:28:40.507Z,7.70
2023-01-09T02:30:13.357Z,7.69
2023-01-09T02:31:55.403Z,7.68
2023-01-09T02:33:04.767Z,7.66
2023-01-09T02:34:17.508Z,7.65
2023-01-09T02:35:35.099Z,7.66
2023-01-09T02:36:45.368Z,7.67
2023-01-09T02:37:56.797Z,7.68
2023-01-09T02:39:10.357Z,7.70
2023-01-09T02:40:36.552Z,7.73
2023-01-09T02:41:45.568Z,7.74
2023-01-09T02:42:49.348Z,7.74
2023-01-09T02:44:13.016Z,7.76
2023-01-09T02:45:16.748Z,7.75
2023-01-09T02:46:22.608Z,7.74
2023-01-09T02:47:25.636Z,7.73
2023-01-09T02:48:30.612Z,7.72
2023-01-09T02:49:38.315Z,7.72
2023-01-09T02:50:51.048Z,7.70
2023-01-09T02:52:04.415Z,7.70
2023-01-09T02:53:19.553Z,7.68
2023-01-09T02:54:43.697Z,7.67
2023-01-09T02:55:55.827Z,7.64
2023-01-09T02:57:30.151Z,7.63
2023-01-09T02:59:05.149Z,7.63
2023-01-09T03:00:24.137Z,7.62
2023-01-09T03:01:47.807Z,7.62
2023-01-09T03:02:57.299Z,7.66
2023-01-09T03:04:19.749Z,7.65
2023-01-09T03:05:32.171Z,7.65
2023-01-09T03:07:21.449Z,7.65
2023-01-09T03:08:31.546Z,7.61
2023-01-09T03:09:37.470Z,7.59
2023-01-09T03:10:49.806Z,7.60
2023-01-09T03:11:59.459Z,7.60
2023-01-09T03:13:03.682Z,7.60
2023-01-09T03:14:17.840Z,7.60
2023-01-09T03:15:26.210Z,7.59
2023-01-09T03:16:33.022Z,7.59
2023-01-09T03:17:39.713Z,7.59
2023-01-09T03:18:44.285Z,7.57
2023-01-09T03:19:49.373Z,7.55
2023-01-09T03:20:55.102Z,7.57
2023-01-09T03:21:59.150Z,7.56
2023-01-09T03:23:06.090Z,7.55
2023-01-09T03:24:09.985Z,7.54
2023-01-09T03:25:13.162Z,7.52
2023-01-09T03:26:16.198Z,7.52
2023-01-09T03:27:19.825Z,7.53
2023-01-09T03:28:29.089Z,7.53
2023-01-09T03:29:32.173Z,7.53
2023-01-09T03:30:36.550Z,7.56
2023-01-09T03:31:39.661Z,7.55
2023-01-09T03:32:42.630Z,7.53
2023-01-09T03:33:46.153Z,7.53
2023-01-09T03:34:49.183Z,7.52
2023-01-09T03:35:52.248Z,7.51
2023-01-09T03:36:55.330Z,7.50
2023-01-09T03:37:59.334Z,7.49
2023-01-09T03:39:02.931Z,7.48
2023-01-09T03:40:06.789Z,7.49
2023-01-09T03:41:10.488Z,7.48
2023-01-09T03:42:13.477Z,7.47
2023-01-09T03:43:16.485Z,7.48
2023-01-09T03:44:19.546Z,7.48
2023-01-09T03:45:22.559Z,7.47
2023-01-09T03:46:25.533Z,7.47
2023-01-09T03:47:28.586Z,7.47
2023-01-09T03:48:31.647Z,7.45
2023-01-09T03:49:34.961Z,7.44
2023-01-09T03:50:37.931Z,7.43
2023-01-09T03:51:40.925Z,7.42
2023-01-09T03:52:43.894Z,7.42
2023-01-09T03:53:46.862Z,7.41
2023-01-09T03:54:49.916Z,7.38
2023-01-09T03:55:55.142Z,7.37
2023-01-09T03:56:58.078Z,7.39
2023-01-09T03:58:00.984Z,7.39
2023-01-09T03:59:03.969Z,7.39
2023-01-09T04:00:08.591Z,7.39
2023-01-09T04:01:17.546Z,7.39
2023-01-09T04:02:20.582Z,7.39
2023-01-09T04:03:23.575Z,7.37
2023-01-09T04:04:26.629Z,7.35
2023-01-09T04:05:30.372Z,7.34
2023-01-09T04:06:33.401Z,7.34
2023-01-09T04:07:36.399Z,7.33
2023-01-09T04:08:39.421Z,7.34
2023-01-09T04:09:42.501Z,7.35
2023-01-09T04:10:46.643Z,7.35
2023-01-09T04:11:49.746Z,7.36
2023-01-09T04:12:52.691Z,7.36
2023-01-09T04:13:55.619Z,7.36
2023-01-09T04:14:58.639Z,7.38
2023-01-09T04:16:01.709Z,7.39
2023-01-09T04:17:04.665Z,7.40
2023-01-09T04:18:08.615Z,7.39
2023-01-09T04:19:11.556Z,7.36
2023-01-09T04:20:14.711Z,7.36
2023-01-09T04:21:17.972Z,7.38
2023-01-09T04:22:20.916Z,7.38
2023-01-09T04:23:23.835Z,7.36
2023-01-09T04:24:26.831Z,7.36
2023-01-09T04:25:29.924Z,7.33
2023-01-09T04:26:33.072Z,7.32
2023-01-09T04:27:36.368Z,7.31
2023-01-09T04:28:39.305Z,7.31
2023-01-09T04:29:42.429Z,7.30
2023-01-09T04:30:45.537Z,7.28
2023-01-09T04:31:48.618Z,7.27
2023-01-09T04:32:52.545Z,7.28
2023-01-09T04:33:55.659Z,7.28
2023-01-09T04:34:58.674Z,7.28
2023-01-09T04:36:01.915Z,7.29
2023-01-09T04:37:05.375Z,7.31
2023-01-09T04:38:08.366Z,7.30
2023-01-09T04:39:11.339Z,7.30
2023-01-09T04:40:15.383Z,7.30
2023-01-09T04:41:38.479Z,7.30
2023-01-09T04:42:41.721Z,7.30
2023-01-09T04:43:44.796Z,7.30
2023-01-09T04:44:47.810Z,7.31
2023-01-09T04:45:50.872Z,7.30
2023-01-09T04:46:56.140Z,7.30
2023-01-09T04:47:59.408Z,7.28
2023-01-09T04:49:02.386Z,7.27
2023-01-09T04:50:05.583Z,7.27
2023-01-09T04:51:08.558Z,7.28
2023-01-09T04:52:11.670Z,7.27
2023-01-09T04:53:14.754Z,7.27
2023-01-09T04:54:18.156Z,7.25
2023-01-09T04:55:21.045Z,7.25
2023-01-09T04:56:24.020Z,7.26
2023-01-09T04:57:27.126Z,7.25
2023-01-09T04:58:30.170Z,7.25
2023-01-09T04:59:33.151Z,7.27
2023-01-09T05:00:36.081Z,7.29
2023-01-09T05:01:39.541Z,7.29
2023-01-09T05:02:42.904Z,7.28
2023-01-09T05:03:46.468Z,7.28
2023-01-09T05:04:49.475Z,7.28
2023-01-09T05:05:52.340Z,7.28
2023-01-09T05:06:55.407Z,7.28
2023-01-09T05:07:58.639Z,7.27
2023-01-09T05:09:01.775Z,7.28
2023-01-09T05:10:05.426Z,7.28
2023-01-09T05:11:08.455Z,7.27
2023-01-09T05:12:11.496Z,7.28
2023-01-09T05:13:14.527Z,7.28
2023-01-09T05:14:18.111Z,7.27
2023-01-09T05:15:21.679Z,7.29
2023-01-09T05:16:24.766Z,7.31
2023-01-09T05:17:27.846Z,7.30
2023-01-09T05:18:31.357Z,7.31
2023-01-09T05:19:34.779Z,7.32
2023-01-09T05:20:37.782Z,7.32
2023-01-09T05:21:40.756Z,7.32
2023-01-09T05:22:43.735Z,7.31
2023-01-09T05:23:46.716Z,7.31
2023-01-09T05:24:49.858Z,7.31
2023-01-09T05:25:53.061Z,7.32
2023-01-09T05:26:56.168Z,7.33
2023-01-09T05:28:01.495Z,7.34
2023-01-09T05:29:04.566Z,7.35
2023-01-09T05:30:08.646Z,7.35
2023-01-09T05:31:11.656Z,7.34
2023-01-09T05:32:14.629Z,7.35
2023-01-09T05:33:17.625Z,7.36
2023-01-09T05:34:21.842Z,7.36
2023-01-09T05:35:25.008Z,7.36
2023-01-09T05:36:28.405Z,7.37
2023-01-09T05:37:31.387Z,7.37
2023-01-09T05:38:34.550Z,7.38
2023-01-09T05:39:37.559Z,7.39
2023-01-09T05:40:40.811Z,7.40
2023-01-09T05:41:43.773Z,7.40
2023-01-09T05:42:46.886Z,7.42
2023-01-09T05:43:50.279Z,7.44
2023-01-09T05:44:53.366Z,7.46
2023-01-09T05:45:56.761Z,7.47
2023-01-09T05:47:01.924Z,7.50
2023-01-09T05:48:06.024Z,7.52
2023-01-09T05:49:08.943Z,7.53
2023-01-09T05:50:13.410Z,7.53
2023-01-09T05:51:16.815Z,7.54
2023-01-09T05:52:19.875Z,7.54
2023-01-09T05:53:22.797Z,7.56
2023-01-09T05:54:25.893Z,7.56
2023-01-09T05:55:28.953Z,7.57
2023-01-09T05:56:32.185Z,7.56
2023-01-09T05:57:35.106Z,7.56
2023-01-09T05:58:38.109Z,7.56
2023-01-09T05:59:41.099Z,7.57
2023-01-09T06:00:44.213Z,7.58
2023-01-09T06:01:47.615Z,7.57
2023-01-09T06:02:50.679Z,7.58
2023-01-09T06:03:53.840Z,7.59
2023-01-09T06:04:56.829Z,7.59
2023-01-09T06:05:59.817Z,7.61
2023-01-09T06:07:02.913Z,7.61
2023-01-09T06:08:05.993Z,7.62
2023-01-09T06:09:09.222Z,7.62
2023-01-09T06:10:14.686Z,7.63
2023-01-09T06:11:17.801Z,7.63
2023-01-09T06:12:21.235Z,7.66
2023-01-09T06:13:24.196Z,7.67
2023-01-09T06:14:27.209Z,7.67
2023-01-09T06:15:30.486Z,7.67
2023-01-09T06:16:33.505Z,7.67
2023-01-09T06:17:36.553Z,7.67
2023-01-09T06:18:39.491Z,7.67
2023-01-09T06:19:42.460Z,7.67
2023-01-09T06:20:46.127Z,7.68
2023-01-09T06:21:49.130Z,7.69
2023-01-09T06:22:53.341Z,7.71
2023-01-09T06:23:57.068Z,7.72
2023-01-09T06:25:01.340Z,7.72
2023-01-09T06:26:04.797Z,7.72
2023-01-09T06:27:07.917Z,7.72
2023-01-09T06:28:11.705Z,7.72
2023-01-09T06:29:15.296Z,7.73
2023-01-09T06:30:19.454Z,7.74
2023-01-09T06:31:23.504Z,7.74
2023-01-09T06:32:26.738Z,7.76
2023-01-09T06:33:30.234Z,7.77
2023-01-09T06:34:33.215Z,7.76
2023-01-09T06:35:36.241Z,7.77
2023-01-09T06:36:39.295Z,7.76
2023-01-09T06:37:42.325Z,7.77
2023-01-09T06:38:45.558Z,7.77
2023-01-09T06:39:48.793Z,7.78
2023-01-09T06:40:51.831Z,7.78
2023-01-09T06:41:54.951Z,7.78
2023-01-09T06:42:58.015Z,7.78
2023-01-09T06:44:01.126Z,7.79
2023-01-09T06:45:04.447Z,7.80
2023-01-09T06:46:07.547Z,7.81
2023-01-09T06:47:10.656Z,7.82
2023-01-09T06:48:13.858Z,7.82
2023-01-09T06:49:18.116Z,7.84
2023-01-09T06:50:21.298Z,7.85
2023-01-09T06:51:24.436Z,7.84
2023-01-09T06:52:27.475Z,7.83
2023-01-09T06:53:30.724Z,7.83
2023-01-09T06:54:34.917Z,7.84
2023-01-09T06:55:38.039Z,7.84
2023-01-09T06:56:41.209Z,7.85
2023-01-09T06:57:44.511Z,7.85
2023-01-09T06:58:47.688Z,7.86
2023-01-09T06:59:50.992Z,7.86
2023-01-09T07:00:55.788Z,7.86
2023-01-09T07:01:59.009Z,7.87
2023-01-09T07:03:02.225Z,7.88
2023-01-09T07:04:06.701Z,7.88
2023-01-09T07:05:11.992Z,7.87
2023-01-09T07:06:15.376Z,7.88
2023-01-09T07:07:19.908Z,7.86
2023-01-09T07:08:23.057Z,7.84
2023-01-09T07:09:26.121Z,7.83
2023-01-09T07:10:29.369Z,7.83
2023-01-09T07:11:32.765Z,7.82
2023-01-09T07:12:35.807Z,7.80
2023-01-09T07:13:38.991Z,7.78
2023-01-09T07:14:42.103Z,7.77
2023-01-09T07:15:45.389Z,7.75
2023-01-09T07:16:48.871Z,7.74
2023-01-09T07:17:52.535Z,7.73
2023-01-09T07:18:55.668Z,7.72
2023-01-09T07:19:59.774Z,7.72
2023-01-09T07:21:03.177Z,7.72
2023-01-09T07:22:06.279Z,7.72
2023-01-09T07:23:12.724Z,7.73
2023-01-09T07:24:16.041Z,7.75
2023-01-09T07:25:19.103Z,7.74
2023-01-09T07:26:22.594Z,7.75
2023-01-09T07:27:25.577Z,7.74
2023-01-09T07:28:28.669Z,7.72
2023-01-09T07:29:31.952Z,7.70
2023-01-09T07:30:35.087Z,7.69
2023-01-09T07:31:38.220Z,7.68
2023-01-09T07:32:41.483Z,7.67
2023-01-09T07:33:44.507Z,7.64
2023-01-09T07:34:49.221Z,7.63
2023-01-09T07:35:52.411Z,7.61
2023-01-09T07:36:55.737Z,7.60
2023-01-09T07:37:59.014Z,7.61
2023-01-09T07:39:02.108Z,7.61
2023-01-09T07:40:05.852Z,7.61
2023-01-09T07:41:09.025Z,7.62
2023-01-09T07:42:12.832Z,7.62
2023-01-09T07:43:16.149Z,7.62
2023-01-09T07:44:19.915Z,7.62
2023-01-09T07:45:22.924Z,7.63
2023-01-09T07:46:26.101Z,7.64
2023-01-09T07:47:29.369Z,7.64
2023-01-09T07:48:32.845Z,7.65
2023-01-09T07:49:35.989Z,7.65
2023-01-09T07:50:38.962Z,7.65
2023-01-09T07:51:43.407Z,7.65
2023-01-09T07:52:47.140Z,7.66
2023-01-09T07:53:50.121Z,7.65
2023-01-09T07:54:53.184Z,7.65
2023-01-09T07:55:56.185Z,7.66
2023-01-09T07:56:59.264Z,7.66
2023-01-09T07:58:02.454Z,7.66
2023-01-09T07:59:05.710Z,7.66
2023-01-09T08:00:12.021Z,7.66
2023-01-09T08:01:16.291Z,7.66
2023-01-09T08:02:20.059Z,7.65
2023-01-09T08:03:24.570Z,7.66
2023-01-09T08:04:27.589Z,7.67
2023-01-09T08:05:30.768Z,7.66
2023-01-09T08:06:34.166Z,7.65
2023-01-09T08:07:37.261Z,7.65
2023-01-09T08:08:40.598Z,7.65
2023-01-09T08:09:43.784Z,7.65
2023-01-09T08:10:46.787Z,7.64
2023-01-09T08:11:50.962Z,7.65
2023-01-09T08:12:53.954Z,7.65
2023-01-09T08:13:57.207Z,7.65
2023-01-09T08:15:00.335Z,7.65
2023-01-09T08:16:03.456Z,7.66
2023-01-09T08:17:06.536Z,7.66
2023-01-09T08:18:09.649Z,7.67
2023-01-09T08:19:13.228Z,7.68
2023-01-09T08:20:17.582Z,7.69
2023-01-09T08:21:20.613Z,7.70
2023-01-09T08:22:23.629Z,7.72
2023-01-09T08:23:26.651Z,7.75
2023-01-09T08:24:31.102Z,7.75
2023-01-09T08:25:34.117Z,7.74
2023-01-09T08:26:37.176Z,7.73
2023-01-09T08:27:40.632Z,7.73
2023-01-09T08:28:43.859Z,7.74
2023-01-09T08:29:47.163Z,7.76
2023-01-09T08:30:50.300Z,7.78
2023-01-09T08:31:53.381Z,7.78
2023-01-09T08:32:56.790Z,7.79
2023-01-09T08:33:59.958Z,7.79
2023-01-09T08:35:04.439Z,7.79
2023-01-09T08:36:08.113Z,7.80
2023-01-09T08:37:11.179Z,7.80
2023-01-09T08:38:14.433Z,7.81
2023-01-09T08:39:17.500Z,7.81
2023-01-09T08:40:20.586Z,7.81
2023-01-09T08:41:42.134Z,7.81
2023-01-09T08:43:04.539Z,7.81
2023-01-09T08:44:26.403Z,7.78
2023-01-09T08:45:49.303Z,7.79
2023-01-09T08:47:08.476Z,7.81
2023-01-09T08:48:11.705Z,7.80
2023-01-09T08:49:14.672Z,7.82
2023-01-09T08:50:17.888Z,7.82
2023-01-09T08:51:21.165Z,7.82
2023-01-09T08:52:24.218Z,7.83
2023-01-09T08:53:27.321Z,7.83
2023-01-09T08:54:31.319Z,7.85
2023-01-09T08:55:34.626Z,7.85
2023-01-09T08:56:37.781Z,7.86
2023-01-09T08:57:54.117Z,7.85
2023-01-09T08:58:57.060Z,7.84
2023-01-09T09:00:00.156Z,7.83
2023-01-09T09:01:07.870Z,7.81
2023-01-09T09:02:11.016Z,7.79
2023-01-09T09:03:14.862Z,7.78
2023-01-09T09:04:18.091Z,7.77
2023-01-09T09:05:22.432Z,7.76
2023-01-09T09:06:25.955Z,7.75
2023-01-09T09:07:29.033Z,7.74
2023-01-09T09:08:32.365Z,7.73
2023-01-09T09:09:35.321Z,7.72
2023-01-09T09:10:38.404Z,7.71
2023-01-09T09:11:41.546Z,7.72
2023-01-09T09:12:45.191Z,7.71
2023-01-09T09:13:48.498Z,7.71
2023-01-09T09:15:14.406Z,7.70
2023-01-09T09:16:17.546Z,7.68
2023-01-09T09:17:20.701Z,7.68
2023-01-09T09:18:23.714Z,7.68
2023-01-09T09:19:26.887Z,7.68
2023-01-09T09:20:33.359Z,7.69
2023-01-09T09:21:36.309Z,7.70
2023-01-09T09:22:39.270Z,7.71
2023-01-09T09:23:44.227Z,7.71
2023-01-09T09:24:47.364Z,7.71
2023-01-09T09:25:50.375Z,7.72
2023-01-09T09:26:53.444Z,7.73
2023-01-09T09:27:56.520Z,7.73
2023-01-09T09:28:59.650Z,7.74
2023-01-09T09:30:02.849Z,7.75
2023-01-09T09:31:07.202Z,7.76
2023-01-09T09:32:10.331Z,7.77
2023-01-09T09:33:13.247Z,7.77
2023-01-09T09:34:16.462Z,7.78
2023-01-09T09:35:21.153Z,7.79
2023-01-09T09:36:24.557Z,7.79
2023-01-09T09:37:27.729Z,7.79
2023-01-09T09:38:30.839Z,7.78
2023-01-09T09:39:34.267Z,7.78
2023-01-09T09:41:06.395Z,7.77
2023-01-09T09:42:55.904Z,7.74
2023-01-09T09:44:48.373Z,7.72
2023-01-09T09:46:19.540Z,7.72
2023-01-09T09:47:31.394Z,7.70
2023-01-09T09:48:41.296Z,7.69
2023-01-09T09:50:29.823Z,7.66
2023-01-09T09:51:44.215Z,7.63
2023-01-09T09:52:50.587Z,7.61
2023-01-09T09:54:09.843Z,7.58
2023-01-09T09:55:22.973Z,7.57
2023-01-09T09:56:28.711Z,7.55
2023-01-09T09:57:37.415Z,7.55
2023-01-09T09:58:45.585Z,7.56
2023-01-09T09:59:51.575Z,7.57
2023-01-09T10:00:56.244Z,7.57
2023-01-09T10:02:06.124Z,7.57
2023-01-09T10:03:33.421Z,7.56
2023-01-09T10:04:42.776Z,7.53
2023-01-09T10:05:49.004Z,7.53
2023-01-09T10:06:59.252Z,7.54
2023-01-09T10:08:30.177Z,7.55
2023-01-09T10:09:55.492Z,7.52
2023-01-09T10:10:59.143Z,7.53
2023-01-09T10:12:05.925Z,7.53
2023-01-09T10:13:32.571Z,7.54
2023-01-09T10:14:36.072Z,7.53
2023-01-09T10:15:46.429Z,7.52
2023-01-09T10:16:49.531Z,7.53
2023-01-09T10:18:04.573Z,7.51
2023-01-09T10:19:29.758Z,7.52
2023-01-09T10:21:22.190Z,7.53
2023-01-09T10:22:29.835Z,7.51
2023-01-09T10:23:32.805Z,7.52
2023-01-09T10:24:48.642Z,7.53
2023-01-09T10:26:11.871Z,7.54
2023-01-09T10:27:27.951Z,7.54
2023-01-09T10:29:02.510Z,7.54
2023-01-09T10:30:40.009Z,7.54
2023-01-09T10:32:10.462Z,7.54
2023-01-09T10:33:38.145Z,7.55
2023-01-09T10:34:56.605Z,7.56
2023-01-09T10:36:14.884Z,7.56
2023-01-09T10:37:34.592Z,7.57
2023-01-09T10:38:43.623Z,7.59
2023-01-09T10:39:54.221Z,7.60
2023-01-09T10:41:20.144Z,7.59
2023-01-09T10:42:32.047Z,7.54
2023-01-09T10:43:43.992Z,7.51
2023-01-09T10:45:18.870Z,7.49
2023-01-09T10:46:28.055Z,7.49
2023-01-09T10:47:35.419Z,7.48
2023-01-09T10:48:48.058Z,7.48
2023-01-09T10:49:52.620Z,7.46
2023-01-09T10:50:57.035Z,7.45
2023-01-09T10:52:09.167Z,7.46
2023-01-09T10:53:29.095Z,7.48
2023-01-09T10:54:32.336Z,7.45
2023-01-09T10:55:47.734Z,7.44
2023-01-09T10:57:13.116Z,7.43
2023-01-09T10:58:18.314Z,7.42
2023-01-09T10:59:21.929Z,7.41
2023-01-09T11:00:25.613Z,7.42
2023-01-09T11:01:32.162Z,7.43
2023-01-09T11:02:36.334Z,7.45
2023-01-09T11:03:39.551Z,7.46
2023-01-09T11:04:43.517Z,7.48
2023-01-09T11:05:56.556Z,7.47
2023-01-09T11:07:21.487Z,7.47
2023-01-09T11:08:31.683Z,7.47
2023-01-09T11:10:07.997Z,7.47
2023-01-09T11:11:12.897Z,7.49
2023-01-09T11:12:30.553Z,7.50
2023-01-09T11:13:36.565Z,7.49
2023-01-09T11:14:39.699Z,7.50
2023-01-09T11:15:42.982Z,7.52
2023-01-09T11:16:57.448Z,7.54
2023-01-09T11:18:24.403Z,7.54
2023-01-09T11:19:28.440Z,7.53
2023-01-09T11:20:31.653Z,7.52
2023-01-09T11:21:41.664Z,7.54
2023-01-09T11:22:53.645Z,7.56
2023-01-09T11:23:56.858Z,7.56
2023-01-09T11:25:02.143Z,7.57
2023-01-09T11:26:05.412Z,7.56
2023-01-09T11:27:14.357Z,7.56
2023-01-09T11:28:19.647Z,7.56
2023-01-09T11:29:24.678Z,7.57
2023-01-09T11:30:28.951Z,7.57
2023-01-09T11:31:32.539Z,7.60
2023-01-09T11:32:36.483Z,7.61
2023-01-09T11:33:49.005Z,7.62
2023-01-09T11:34:52.107Z,7.61
2023-01-09T11:35:59.464Z,7.61
2023-01-09T11:37:18.862Z,7.61
2023-01-09T11:38:22.043Z,7.62
2023-01-09T11:39:32.805Z,7.63
2023-01-09T11:40:46.020Z,7.65
2023-01-09T11:41:53.440Z,7.66
2023-01-09T11:43:20.986Z,7.67
2023-01-09T11:44:25.139Z,7.66
2023-01-09T11:45:32.266Z,7.67
2023-01-09T11:46:42.550Z,7.69
2023-01-09T11:47:46.299Z,7.69
2023-01-09T11:48:57.489Z,7.70
2023-01-09T11:50:26.392Z,7.71
2023-01-09T11:51:32.915Z,7.71
2023-01-09T11:52:35.931Z,7.72
2023-01-09T11:53:50.700Z,7.73
2023-01-09T11:55:11.760Z,7.75
2023-01-09T11:56:17.533Z,7.75
2023-01-09T11:57:22.852Z,7.75
2023-01-09T11:58:33.489Z,7.77
2023-01-09T11:59:36.468Z,7.78
2023-01-09T12:00:46.219Z,7.78
2023-01-09T12:01:56.492Z,7.78
2023-01-09T12:03:08.566Z,7.78
2023-01-09T12:04:28.647Z,7.78
2023-01-09T12:06:15.343Z,7.78
2023-01-09T12:07:40.449Z,7.78
2023-01-09T12:09:23.425Z,7.78
2023-01-09T12:10:47.733Z,7.77
2023-01-09T12:12:06.233Z,7.76
2023-01-09T12:13:47.238Z,7.76
2023-01-09T12:14:53.129Z,7.77
2023-01-09T12:16:15.821Z,7.78
2023-01-09T12:17:31.390Z,7.78
2023-01-09T12:18:48.239Z,7.77
2023-01-09T12:20:07.842Z,7.76
2023-01-09T12:21:35.531Z,7.77
2023-01-09T12:23:20.761Z,7.76
2023-01-09T12:24:36.056Z,7.73
2023-01-09T12:26:05.665Z,7.73
2023-01-09T12:27:37.475Z,7.73
2023-01-09T12:29:23.726Z,7.72
2023-01-09T12:30:42.242Z,7.71
2023-01-09T12:32:06.341Z,7.70
2023-01-09T12:33:28.091Z,7.69
2023-01-09T12:35:03.942Z,7.69
2023-01-09T12:36:23.552Z,7.71
2023-01-09T12:37:45.801Z,7.72
2023-01-09T12:39:23.232Z,7.71
2023-01-09T12:40:39.512Z,7.71
2023-01-09T12:42:08.691Z,7.72
2023-01-09T12:43:55.056Z,7.73
2023-01-09T12:44:58.143Z,7.74
2023-01-09T12:46:19.586Z,7.76
2023-01-09T12:47:41.021Z,7.78
2023-01-09T12:49:15.292Z,7.78
2023-01-09T12:50:36.763Z,7.76
2023-01-09T12:52:01.140Z,7.74
2023-01-09T12:53:30.277Z,7.73
2023-01-09T12:54:55.243Z,7.73
2023-01-09T12:56:04.866Z,7.74
2023-01-09T12:57:19.442Z,7.74
2023-01-09T12:58:36.204Z,7.76
2023-01-09T12:59:45.525Z,7.77
2023-01-09T13:00:53.188Z,7.77
2023-01-09T13:02:32.632Z,7.78
2023-01-09T13:03:53.369Z,7.79
2023-01-09T13:05:15.959Z,7.80
2023-01-09T13:06:23.126Z,7.80
2023-01-09T13:07:34.566Z,7.82
2023-01-09T13:08:46.445Z,7.82
2023-01-09T13:09:59.922Z,7.82
2023-01-09T13:11:20.268Z,7.83
2023-01-09T13:12:25.945Z,7.83
2023-01-09T13:14:16.831Z,7.83
2023-01-09T13:15:29.799Z,7.85
2023-01-09T13:16:50.021Z,7.84
2023-01-09T13:18:16.568Z,7.83
2023-01-09T13:19:37.414Z,7.83
2023-01-09T13:20:56.096Z,7.83
2023-01-09T13:21:59.630Z,7.81
2023-01-09T13:23:04.292Z,7.82
2023-01-09T13:24:16.688Z,7.84
2023-01-09T13:25:41.784Z,7.86
2023-01-09T13:26:55.546Z,7.85
2023-01-09T13:28:05.860Z,7.86
2023-01-09T13:29:21.981Z,7.86
2023-01-09T13:30:43.838Z,7.88
2023-01-09T13:32:05.695Z,7.90
2023-01-09T13:33:14.718Z,7.90
2023-01-09T13:34:22.772Z,7.90
2023-01-09T13:35:26.127Z,7.90
2023-01-09T13:36:33.240Z,7.91
2023-01-09T13:37:37.134Z,7.92
2023-01-09T13:38:40.310Z,7.91
2023-01-09T13:39:43.327Z,7.91
2023-01-09T13:40:46.430Z,7.92
2023-01-09T13:42:13.644Z,7.93
2023-01-09T13:43:17.065Z,7.92
2023-01-09T13:44:28.858Z,7.91
2023-01-09T13:45:37.612Z,7.90
2023-01-09T13:46:43.533Z,7.89
2023-01-09T13:47:46.646Z,7.89
2023-01-09T13:48:49.752Z,7.89
2023-01-09T13:49:52.707Z,7.89
2023-01-09T13:51:34.482Z,7.90
2023-01-09T13:52:41.331Z,7.88
2023-01-09T13:53:46.010Z,7.87
2023-01-09T13:54:58.373Z,7.87
2023-01-09T13:56:02.520Z,7.87
2023-01-09T13:57:17.028Z,7.88
2023-01-09T13:58:22.763Z,7.88
2023-01-09T13:59:28.394Z,7.89
2023-01-09T14:00:38.469Z,7.90
2023-01-09T14:01:42.657Z,7.91
2023-01-09T14:02:49.790Z,7.91
2023-01-09T14:04:13.920Z,7.94
2023-01-09T14:05:23.987Z,7.95
2023-01-09T14:06:28.216Z,7.96
2023-01-09T14:07:33.804Z,7.98
2023-01-09T14:08:36.901Z,7.98
2023-01-09T14:09:48.960Z,7.98
2023-01-09T14:11:01.225Z,7.97
2023-01-09T14:12:06.607Z,7.97
2023-01-09T14:13:17.620Z,7.97
2023-01-09T14:14:30.443Z,7.99
2023-01-09T14:15:39.629Z,7.99
2023-01-09T14:16:44.850Z,8.00
2023-01-09T14:17:50.983Z,8.00
2023-01-09T14:18:58.185Z,8.01
2023-01-09T14:20:06.041Z,8.02
2023-01-09T14:21:12.875Z,8.03
2023-01-09T14:22:42.330Z,8.03
2023-01-09T14:24:06.696Z,8.03
2023-01-09T14:26:46.135Z,8.04
2023-01-09T14:27:56.041Z,8.04
2023-01-09T14:29:36.442Z,8.06
2023-01-09T14:30:59.301Z,8.06
2023-01-09T14:32:21.155Z,8.07
2023-01-09T14:33:28.512Z,8.07
2023-01-09T14:34:37.349Z,8.07
2023-01-09T14:35:51.012Z,8.07
2023-01-09T14:36:58.651Z,8.07
2023-01-09T14:38:22.296Z,8.07
2023-01-09T14:39:27.040Z,8.06
2023-01-09T14:40:32.118Z,8.07
2023-01-09T14:42:09.718Z,8.08
2023-01-09T14:43:24.106Z,8.08
2023-01-09T14:44:49.001Z,8.08
2023-01-09T14:45:59.094Z,8.08
2023-01-09T14:47:13.218Z,8.09
2023-01-09T14:48:17.611Z,8.11
2023-01-09T14:49:38.880Z,8.12
2023-01-09T14:50:50.724Z,8.13
2023-01-09T14:51:55.443Z,8.14
2023-01-09T14:53:11.140Z,8.15
2023-01-09T14:54:25.055Z,8.14
2023-01-09T14:55:55.639Z,8.14
2023-01-09T14:56:59.920Z,8.11
2023-01-09T14:58:13.255Z,8.10
2023-01-09T14:59:16.811Z,8.08
2023-01-09T15:00:20.838Z,8.08
2023-01-09T15:01:27.387Z,8.07
2023-01-09T15:02:35.374Z,8.07
2023-01-09T15:03:46.260Z,8.05
2023-01-09T15:04:50.025Z,8.04
2023-01-09T15:05:53.193Z,8.04
2023-01-09T15:06:56.378Z,8.05
2023-01-09T15:08:03.433Z,8.04
2023-01-09T15:09:16.798Z,8.04
2023-01-09T15:10:23.295Z,8.03
2023-01-09T15:11:28.805Z,8.02
2023-01-09T15:12:32.713Z,8.02
2023-01-09T15:13:41.368Z,8.02
2023-01-09T15:14:46.237Z,8.02